Latest Weather Observations for Mount Crawford

IDS60901

Issued at 3:31 pm CDT Tuesday 23 December 2014 (issued every 10 minutes, with the page automatically refreshed every 10 minutes)

About weather observations | Map of Adelaide area stations | Latest observations for Adelaide area | Other Formats
Station Details ID: 023878 Name: MT CRAWFORD AWS Lat: -34.73 Lon: 138.93 Height: 525.0 m
Data from the previous 72 hours. | See also: Recent months at Mount Crawford
Date/Time
CDT
Tmp

°C
App
Tmp
°C
Dew
Point
°C
Rel
Hum
%
Delta-T

°C
Wind Press
QNH
hPa
Press
MSL
hPa
Rain
since
9 am
mm
Dir
 
Spd
km/h
Gust
km/h
Spd
kts
Gust
kts
23/03:30pm 19.2 16.5 13.4 69 3.4 WSW 20 32 11 17 1014.8 1013.1 0.0
23/03:00pm 19.7 16.5 13.2 66 3.8 WSW 22 32 12 17 1014.7 1013.0 0.0
23/02:30pm 18.0 15.3 11.6 66 3.6 SSW 17 22 9 12 1014.8 1013.1 0.0
23/02:00pm 17.7 14.8 11.0 65 3.7 SW 17 26 9 14 1014.6 1012.9 0.0
23/01:30pm 18.3 16.3 11.6 65 3.8 SW 13 22 7 12 1014.4 1012.7 0.0
23/01:00pm 17.9 14.7 11.9 68 3.4 SSW 20 28 11 15 1014.2 1012.4 0.0
23/12:30pm 16.9 14.4 12.2 74 2.7 SSW 17 24 9 13 1014.3 1012.5 0.0
23/12:00pm 15.5 12.6 12.8 84 1.5 SSW 20 30 11 16 1014.1 1012.3 0.0
23/11:30am 15.4 13.3 13.6 89 1.0 SSW 17 24 9 13 1014.0 1012.2 0.0
23/11:00am 14.5 12.5 14.0 97 0.3 SSW 17 24 9 13 1013.9 1012.1 0.0
23/10:30am 15.2 13.3 14.1 93 0.6 SSW 17 24 9 13 1013.6 1011.8 0.0
23/10:00am 15.4 14.1 14.9 97 0.3 SSW 15 22 8 12 1013.3 1011.5 0.0
23/09:30am 14.9 13.6 14.9 100 0.0 WSW 15 22 8 12 1013.1 1011.3 0.0
23/09:00am 14.8 13.5 14.8 100 0.0 W 15 20 8 11 1012.9 1011.2 1.0
23/08:30am 14.4 13.0 14.4 100 0.0 WSW 15 22 8 12 1012.5 1010.7 1.0
23/08:00am 14.6 13.2 14.6 100 0.0 W 15 20 8 11 1012.3 1010.5 1.0
23/07:30am 15.0 14.5 15.0 100 0.0 W 11 17 6 9 1011.9 1010.1 1.0
23/07:00am 15.2 14.8 15.2 100 0.0 WSW 11 15 6 8 1011.4 1009.6 1.0
23/06:30am 15.3 14.9 15.3 100 0.0 WSW 11 17 6 9 1011.1 1009.3 1.0
23/06:00am 15.5 15.2 15.5 100 0.0 WSW 11 17 6 9 1010.8 1009.0 1.0
23/05:30am 15.4 14.7 15.4 100 0.0 SW 13 20 7 11 1010.5 1008.7 1.0
23/05:00am 15.5 14.8 15.5 100 0.0 WSW 13 20 7 11 1010.4 1008.6 1.0
23/04:30am 15.6 15.0 15.6 100 0.0 WSW 13 19 7 10 1010.1 1008.3 1.0
23/04:00am 15.6 15.4 15.6 100 0.0 WSW 11 17 6 9 1010.0 1008.2 1.0
23/03:30am 15.6 15.7 15.6 100 0.0 W 9 13 5 7 1010.2 1008.4 1.0
23/03:00am 15.6 15.4 15.6 100 0.0 SW 11 17 6 9 1010.0 1008.2 1.0
23/02:30am 15.6 15.4 15.6 100 0.0 WSW 11 13 6 7 1010.1 1008.3 1.0
23/02:00am 16.0 16.3 16.0 100 0.0 WSW 9 13 5 7 1010.2 1008.4 1.0
23/01:30am 16.2 16.9 16.2 100 0.0 WSW 7 9 4 5 1010.2 1008.4 1.0
23/01:00am 16.0 16.6 15.8 99 0.1 WNW 7 11 4 6 1010.1 1008.3 1.0
23/12:30am 16.2 16.5 16.0 99 0.1 W 9 13 5 7 1010.3 1008.5 1.0
23/12:00am 16.4 16.8 16.2 99 0.1 WNW 9 13 5 7 1010.6 1008.8 1.0
 
Date/Time
CDT
Tmp

°C
App
Tmp
°C
Dew
Point
°C
Rel
Hum
%
Delta-T

°C
Wind Press
QNH
hPa
Press
MSL
hPa
Rain
since
9 am
mm
Dir
 
Spd
km/h
Gust
km/h
Spd
kts
Gust
kts
22/11:30pm 16.6 17.0 16.4 99 0.1 WNW 9 13 5 7 1010.4 1008.6 1.0
22/11:00pm 16.6 17.6 16.4 99 0.1 NE 6 9 3 5 1010.2 1008.4 1.0
22/10:30pm 17.0 18.8 16.4 96 0.4 NNE 2 6 1 3 1010.3 1008.5 1.0
22/10:00pm 17.6 17.8 14.7 83 1.7 NNW 7 11 4 6 1010.2 1008.4 1.0
22/09:30pm 16.9 18.0 16.6 98 0.2 E 6 7 3 4 1010.1 1008.3 1.0
22/09:00pm 16.7 17.2 16.5 99 0.1 E 9 13 5 7 1009.7 1007.9 1.0
22/08:30pm 16.7 16.8 16.5 99 0.1 E 11 17 6 9 1009.7 1007.9 1.0
22/08:00pm 16.9 16.3 16.6 98 0.2 E 15 20 8 11 1009.2 1007.3 1.0
22/07:30pm 17.0 15.7 16.8 99 0.1 ENE 19 24 10 13 1008.6 1006.8 1.0
22/07:00pm 17.3 17.2 17.0 98 0.2 E 13 17 7 9 1008.3 1006.5 1.0
22/06:30pm 18.5 18.5 15.2 81 2.0 W 9 17 5 9 1009.9 1008.1 0.2
22/06:00pm 19.4 18.4 14.6 74 2.9 WSW 13 17 7 9 1009.4 1007.6 0.0
22/05:30pm 20.6 19.8 14.0 66 3.9 W 11 15 6 8 1009.4 1007.6 0.0
22/05:00pm 20.5 20.5 15.1 71 3.3 WSW 9 11 5 6 1009.2 1007.3 0.0
22/04:30pm 20.1 18.4 14.7 71 3.2 W 17 24 9 13 1009.6 1007.8 0.0
22/04:00pm 20.3 18.9 14.4 69 3.5 W 15 22 8 12 1009.4 1007.6 0.0
22/03:30pm 20.8 20.5 13.3 62 4.4 ESE 7 9 4 5 1008.9 1007.1 0.0
22/03:00pm 20.3 19.7 13.5 65 4.0 E 9 15 5 8 1008.9 1007.1 0.0
22/02:30pm 21.1 20.3 11.7 55 5.4 W 7 13 4 7 1009.5 1007.7 0.0
22/02:00pm 21.0 18.8 13.4 62 4.5 W 17 22 9 12 1010.9 1009.1 0.0
22/01:30pm 21.5 18.8 13.4 60 4.8 W 20 30 11 16 1011.2 1009.4 0.0
22/01:00pm 22.3 19.3 12.5 53 5.7 W 20 32 11 17 1011.4 1009.6 0.0
22/12:30pm 22.3 19.6 13.4 57 5.3 W 20 28 11 15 1011.4 1009.6 0.0
22/12:00pm 21.6 18.4 11.3 52 5.9 NW 19 26 10 14 1011.9 1010.1 0.0
22/11:48am 21.6 18.0 10.7 50 6.1 NW 20 39 11 21 1011.7 1009.9 0.0
22/11:30am 21.6 18.6 10.7 50 6.1 WNW 17 20 9 11 1010.7 1008.9 0.0
22/11:00am 21.9 20.3 12.7 56 5.4 W 13 20 7 11 1010.3 1008.5 0.0
22/10:30am 22.1 19.2 12.4 54 5.6 W 19 28 10 15 1009.8 1008.0 0.0
22/10:00am 23.9 20.8 10.2 42 7.7 W 17 22 9 12 1009.5 1007.7 0.0
22/09:30am 25.3 21.8 7.0 31 9.9 N 15 20 8 11 1009.2 1007.3 0.0
22/09:00am 23.6 21.1 8.1 37 8.4 NE 11 15 6 8 1009.2 1007.3 0.0
22/08:30am 22.4 19.7 8.9 42 7.4 NE 13 17 7 9 1008.8 1007.0 0.0
22/08:00am 21.3 18.3 9.2 46 6.6 ENE 15 20 8 11 1008.9 1007.1 0.0
22/07:30am 21.4 17.8 8.3 43 7.1 E 17 24 9 13 1008.3 1006.5 0.0
22/07:00am 20.2 16.8 9.2 49 6.0 E 17 20 9 11 1008.3 1006.5 0.0
22/06:30am 20.2 16.3 8.8 48 6.2 ESE 19 20 10 11 1008.4 1006.6 0.0
22/06:00am 20.0 16.0 8.4 47 6.2 ESE 19 20 10 11 1008.4 1006.6 0.0
22/05:30am 20.7 16.4 8.0 44 6.8 ESE 20 24 11 13 1008.2 1006.4 0.0
22/05:00am 21.0 16.4 8.0 43 6.9 ESE 22 24 12 13 1008.2 1006.4 0.0
22/04:30am 20.5 15.7 7.5 43 6.9 E 22 26 12 14 1008.2 1006.4 0.0
22/04:00am 20.0 16.2 7.7 45 6.5 ESE 17 20 9 11 1008.4 1006.6 0.0
22/03:30am 20.1 17.0 7.1 43 6.8 ESE 13 17 7 9 1008.6 1006.8 0.0
22/03:00am 21.6 19.2 5.1 34 8.4 W 7 11 4 6 1009.1 1007.2 0.0
22/02:30am 21.5 20.1 5.4 35 8.2 NNE 2 6 1 3 1009.8 1008.0 0.0
22/02:00am 21.3 16.8 6.8 39 7.6 ESE 20 24 11 13 1009.8 1008.0 0.0
22/01:30am 21.8 16.3 5.7 35 8.3 ESE 24 28 13 15 1009.7 1007.9 0.0
22/01:00am 22.7 17.4 5.2 32 9.0 ESE 22 28 12 15 1010.0 1008.2 0.0
22/12:30am 22.9 18.0 5.3 32 9.1 ESE 20 24 11 13 1010.7 1008.9 0.0
22/12:00am 22.9 18.0 5.3 32 9.1 ESE 20 26 11 14 1011.3 1009.5 0.0
 
Date/Time
CDT
Tmp

°C
App
Tmp
°C
Dew
Point
°C
Rel
Hum
%
Delta-T

°C
Wind Press
QNH
hPa
Press
MSL
hPa
Rain
since
9 am
mm
Dir
 
Spd
km/h
Gust
km/h
Spd
kts
Gust
kts
21/11:30pm 23.5 19.1 4.9 30 9.5 SE 17 19 9 10 1011.7 1009.9 0.0
21/11:00pm 22.8 19.4 5.7 33 8.8 NW 13 24 7 13 1012.3 1010.5 0.0
21/10:30pm 23.0 17.4 5.4 32 9.1 E 24 39 13 21 1011.9 1010.1 0.0
21/10:00pm 22.2 16.1 6.4 36 8.2 SE 28 41 15 22 1011.8 1010.0 0.0
21/09:30pm 22.0 17.1 7.0 38 7.9 SE 22 28 12 15 1011.8 1010.0 0.0
21/09:00pm 21.8 16.7 7.6 40 7.6 ESE 24 32 13 17 1011.6 1009.8 0.0
21/08:30pm 21.6 16.9 9.2 45 6.8 SE 24 30 13 16 1011.5 1009.7 0.0
21/08:00pm 22.8 19.1 10.3 45 7.0 SE 20 28 11 15 1011.5 1009.7 0.0
21/07:30pm 24.0 20.5 10.3 42 7.7 SE 19 26 10 14 1011.4 1009.6 0.0
21/07:00pm 24.7 20.6 10.2 40 8.2 SE 22 28 12 15 1011.4 1009.6 0.0
21/06:30pm 26.0 21.8 11.0 39 8.7 SE 24 33 13 18 1011.2 1009.4 0.0
21/06:00pm 29.0 25.2 9.7 30 11.1 ESE 20 28 11 15 1010.9 1009.1 0.0
21/05:30pm 29.5 25.7 9.1 28 11.6 ESE 19 28 10 15 1011.1 1009.3 0.0
21/05:00pm 29.8 25.9 8.8 27 11.9 S 19 26 10 14 1011.3 1009.5 0.0
21/04:30pm 32.2 28.6 0.3 13 15.9 SW 9 20 5 11 1011.3 1009.5 0.0
21/04:00pm 31.8 26.7 1.0 14 15.5 W 17 26 9 14 1011.7 1009.9 0.0
21/03:30pm 30.9 25.2 0.3 14 15.2 WSW 20 33 11 18 1011.8 1010.0 0.0
21/03:00pm 32.0 27.0 1.2 14 15.6 WSW 17 35 9 19 1012.0 1010.2 0.0
21/02:30pm 32.5 26.0 0.6 13 16.0 W 24 39 13 21 1012.2 1010.4 0.0
21/02:00pm 33.2 27.6 1.1 13 16.3 W 20 32 11 17 1012.5 1010.7 0.0
21/01:30pm 32.7 26.3 0.7 13 16.1 W 24 43 13 23 1012.8 1011.1 0.0
21/01:00pm 31.7 26.3 -1.2 12 16.0 NW 17 35 9 19 1013.3 1011.5 0.0
21/12:30pm 31.0 25.3 0.4 14 15.2 NW 20 30 11 16 1013.6 1011.8 0.0
21/12:00pm 31.4 26.3 0.7 14 15.4 NNW 17 39 9 21 1013.8 1012.0 0.0
21/11:30am 30.5 24.5 1.0 15 14.7 N 22 35 12 19 1013.9 1012.1 0.0
21/11:00am 30.1 24.7 2.4 17 14.1 NW 20 32 11 17 1013.9 1012.1 0.0
21/10:30am 29.3 23.5 2.5 18 13.6 N 22 33 12 18 1014.0 1012.2 0.0
21/10:00am 29.1 23.2 3.9 20 13.1 N 24 33 13 18 1014.0 1012.2 0.0
21/09:30am 28.3 22.3 3.2 20 12.8 N 24 35 13 19 1014.0 1012.2 0.0
21/09:00am 27.4 22.3 3.2 21 12.3 NNE 19 30 10 16 1014.0 1012.2 0.0
21/08:30am 26.3 19.5 2.9 22 11.8 NNE 28 39 15 21 1014.1 1012.3 0.0
21/08:00am 24.9 18.9 3.5 25 10.8 NNE 24 32 13 17 1014.0 1012.2 0.0
21/07:30am 23.8 18.0 4.2 28 9.9 NNE 24 28 13 15 1013.7 1011.9 0.0
21/07:00am 22.4 17.4 4.5 31 9.0 NNE 20 28 11 15 1013.5 1011.7 0.0
21/06:30am 21.1 15.3 4.6 34 8.3 NE 24 30 13 16 1013.2 1011.4 0.0
21/06:00am 20.7 14.6 4.7 35 8.0 NE 26 33 14 18 1013.1 1011.3 0.0
21/05:30am 20.1 13.8 5.7 39 7.3 NE 28 35 15 19 1012.9 1011.2 0.0
21/05:00am 19.1 13.1 6.9 45 6.3 ENE 28 35 15 19 1012.8 1011.1 0.0
21/04:30am 18.7 12.8 7.5 48 5.8 ENE 28 35 15 19 1012.7 1011.0 0.0
21/04:00am 18.1 12.7 8.1 52 5.3 ENE 26 35 14 19 1012.8 1011.1 0.0
21/03:30am 17.1 11.9 8.8 58 4.4 ENE 26 30 14 16 1012.8 1011.1 0.0
21/03:00am 16.9 11.8 9.1 60 4.2 E 26 32 14 17 1013.1 1011.3 0.0
21/02:30am 17.3 12.1 9.0 58 4.4 E 26 32 14 17 1013.7 1011.9 0.0
21/02:00am 17.5 12.0 9.2 58 4.4 E 28 33 15 18 1013.7 1011.9 0.0
21/01:30am 16.4 11.4 9.6 64 3.6 ESE 26 28 14 15 1013.9 1012.1 0.0
21/01:00am 16.1 11.2 9.8 66 3.4 ESE 26 30 14 16 1014.1 1012.3 0.0
21/12:30am 15.8 10.8 9.5 66 3.4 ESE 26 30 14 16 1014.3 1012.5 0.0
21/12:00am 16.2 11.1 9.2 63 3.7 ESE 26 32 14 17 1014.5 1012.8 0.0
 
Date/Time
CDT
Tmp

°C
App
Tmp
°C
Dew
Point
°C
Rel
Hum
%
Delta-T

°C
Wind Press
QNH
hPa
Press
MSL
hPa
Rain
since
9 am
mm
Dir
 
Spd
km/h
Gust
km/h
Spd
kts
Gust
kts
20/11:30pm 16.5 11.5 9.4 63 3.8 ESE 26 32 14 17 1014.8 1013.1 0.0
20/11:00pm 16.9 12.3 9.8 63 3.8 SE 24 30 13 16 1015.2 1013.4 0.0
20/10:30pm 17.1 12.6 10.0 63 3.8 ESE 24 30 13 16 1015.4 1013.6 0.0
20/10:00pm 17.5 13.5 10.4 63 3.9 SE 22 28 12 15 1015.6 1013.8 0.0
20/09:30pm 17.9 13.9 10.3 61 4.2 SE 22 28 12 15 1015.6 1013.8 0.0
20/09:00pm 18.7 15.0 10.3 58 4.6 SE 20 24 11 13 1015.7 1013.9 0.0
20/08:30pm 19.9 16.3 10.0 53 5.4 SE 19 26 10 14 1015.4 1013.6 0.0
20/08:00pm 21.4 17.7 9.6 47 6.5 SE 19 24 10 13 1015.2 1013.4 0.0
20/07:30pm 22.9 19.1 9.0 41 7.6 SSE 19 28 10 15 1014.9 1013.2 0.0
20/07:00pm 25.0 21.6 7.6 33 9.4 SSE 15 26 8 14 1014.9 1013.2 0.0
20/06:30pm 26.8 22.8 6.8 28 10.8 WSW 17 26 9 14 1014.9 1013.2 0.0
20/06:00pm 26.7 21.0 6.7 28 10.8 W 26 35 14 19 1014.6 1012.9 0.0
20/05:30pm 27.1 23.5 2.9 21 12.2 NNE 11 19 6 10 1014.7 1013.0 0.0
20/05:00pm 27.8 25.1 3.5 21 12.5 SW 7 13 4 7 1014.9 1013.2 0.0
20/04:30pm 27.8 23.3 4.2 22 12.2 W 17 22 9 12 1015.2 1013.4 0.0
20/04:00pm 27.4 23.6 3.8 22 12.1 NW 13 20 7 11 1015.6 1013.8 0.0

Latest Capital City Observations: Canberra | Sydney | Melbourne | Brisbane | Adelaide | Perth | Hobart | Darwin

Other Formats:

Comma delimited format used in spreadsheet applications
http://www.bom.gov.au/fwo/IDS60901/IDS60901.94678.axf

JavaScript Object Notation format (JSON) in row-major order
http://www.bom.gov.au/fwo/IDS60901/IDS60901.94678.json